Independence — WDF3297 — position and weather

sailwx.info

Track history (hours):
 
Tides and Currents Weather Stations Pressure Air Temp Water Temp Dewpoint Dewpoint Depression Visibility Wind Speed Wind Dir Waves Ship Positions

Independence

Owner: American Cruise Lines Inc., Delmar, DE. More information available from US FCC via Universal Licensing System and Coast Guard Vessel Documentation Center.

Last reported at 2015-Dec-31 08:30 UTC. Time now 2016-Feb-06 11:30 UTC.
Position N 31°45' W 081°10'.
Warning: this ship's position is 37 days out of date.

Length 65 m; draft 2.5 m.

Type: Passenger vessel. MMSI: 367438210.

Date/timePositionNaut miles runAvg speedWind from/ knotsBaromVisibWave heightAir tempDewpointWater temp
2015-Dec-31 08:30N 31°45' W 081°10'7 6.8
2015-Dec-31 07:25N 31°51' W 081°06'5 5.9
2015-Dec-31 06:33N 31°56' W 081°05'5 5.3
2015-Dec-31 05:33N 32°01' W 081°02'5 4.9
2015-Dec-31 04:33N 32°06' W 080°60'5 4.8
2015-Dec-31 03:31N 32°05' W 081°05'0 0.0
2015-Dec-31 02:31N 32°05' W 081°05'0 0.0
2015-Dec-31 01:31N 32°05' W 081°05'0 0.0
2015-Dec-31 00:31N 32°05' W 081°05'0 0.0
2015-Dec-30 23:31N 32°05' W 081°05'0 0.0
2015-Dec-30 22:31N 32°05' W 081°05'0 0.0
2015-Dec-30 21:31N 32°05' W 081°05'0 0.0
2015-Dec-30 20:31N 32°05' W 081°05'0 0.0
2015-Dec-30 19:31N 32°05' W 081°05'0 0.0
2015-Dec-30 18:31N 32°05' W 081°05'0 0.0
2015-Dec-30 17:31N 32°05' W 081°05'0 0.0
2015-Dec-30 16:31N 32°05' W 081°05'0 0.0
2015-Dec-30 15:31N 32°05' W 081°05'0 0.0
2015-Dec-30 14:31N 32°05' W 081°05'0 0.0
2015-Dec-30 13:31N 32°05' W 081°05'0 0.0
2015-Dec-30 12:31N 32°05' W 081°05'0 0.0
2015-Dec-30 11:31N 32°05' W 081°05'0 0.0
2015-Dec-30 10:31N 32°05' W 081°05'0 0.0
2015-Dec-30 09:31N 32°05' W 081°05'0 0.0
2015-Dec-30 08:31N 32°05' W 081°05'0 0.0
2015-Dec-30 07:31N 32°05' W 081°05'0 0.0
2015-Dec-30 06:31N 32°05' W 081°05'0 0.0
2015-Dec-30 05:31N 32°05' W 081°05'0 0.0
2015-Dec-30 04:31N 32°05' W 081°05'0 0.0
2015-Dec-30 03:31N 32°05' W 081°05'0 0.0
2015-Dec-30 02:31N 32°05' W 081°05'0 0.0
2015-Dec-30 01:31N 32°05' W 081°05'0 0.0
2015-Dec-30 00:31N 32°05' W 081°05'0 0.0
2015-Dec-29 23:31N 32°05' W 081°05'0 0.0
2015-Dec-29 22:31N 32°05' W 081°05'0 0.0
2015-Dec-29 21:31N 32°05' W 081°05'0 0.0
2015-Dec-29 20:34N 32°05' W 081°05'5 4.7
2015-Dec-29 19:34N 32°06' W 080°60'5 5.2
2015-Dec-29 18:34N 32°07' W 080°54'4 0.8
2015-Dec-29 13:10N 32°09' W 080°49'  
2015-Dec-23 20:21N 32°08' W 080°49'0 0.0
2015-Dec-23 19:33N 32°08' W 080°49'4 0.7
2015-Dec-23 14:33N 32°08' W 080°53'6 5.9
2015-Dec-23 13:33N 32°05' W 080°59'5 5.1
2015-Dec-23 12:33N 32°05' W 081°05'0 0.0
2015-Dec-23 11:33N 32°05' W 081°05'0 0.0
2015-Dec-23 10:33N 32°05' W 081°05'0 0.0
2015-Dec-23 09:33N 32°05' W 081°05'0 0.0
2015-Dec-23 08:33N 32°05' W 081°05'0 0.0
2015-Dec-23 07:33N 32°05' W 081°05'0 0.0
2015-Dec-23 06:33N 32°05' W 081°05'0 0.0
2015-Dec-23 05:33N 32°05' W 081°05'0 0.0
2015-Dec-23 04:33N 32°05' W 081°05'0 0.0
2015-Dec-23 03:33N 32°05' W 081°05'0 0.0
2015-Dec-23 02:33N 32°05' W 081°05'0 0.0
2015-Dec-23 01:33N 32°05' W 081°05'0 0.0
2015-Dec-23 00:33N 32°05' W 081°05'0 0.0
2015-Dec-22 23:33N 32°05' W 081°05'0 0.0
2015-Dec-22 22:33N 32°05' W 081°05'0 0.0
2015-Dec-22 21:33N 32°05' W 081°05'0 0.0
2015-Dec-22 20:33N 32°05' W 081°05'0 0.0
2015-Dec-22 19:33N 32°05' W 081°05'0 0.0
2015-Dec-22 18:33N 32°05' W 081°05'0 0.0
2015-Dec-22 17:33N 32°05' W 081°05'0 0.0
2015-Dec-22 16:33N 32°05' W 081°05'0 0.0
2015-Dec-22 15:33N 32°05' W 081°05'0 0.0
2015-Dec-22 14:33N 32°05' W 081°05'0 0.0
2015-Dec-22 13:33N 32°05' W 081°05'0 0.0
2015-Dec-22 12:33N 32°05' W 081°05'0 0.0
2015-Dec-22 11:33N 32°05' W 081°05'0 0.0
2015-Dec-22 10:33N 32°05' W 081°05'0 0.0
2015-Dec-22 09:33N 32°05' W 081°05'0 0.0
2015-Dec-22 08:33N 32°05' W 081°05'0 0.0
2015-Dec-22 07:33N 32°05' W 081°05'0 0.0
2015-Dec-22 06:33N 32°05' W 081°05'0 0.0
2015-Dec-22 05:33N 32°05' W 081°05'0 0.0
2015-Dec-22 04:33N 32°05' W 081°05'0 0.0
2015-Dec-22 03:33N 32°05' W 081°05'0 0.0
2015-Dec-22 02:33N 32°05' W 081°05'0 0.0
2015-Dec-22 01:33N 32°05' W 081°05'4 4.1
2015-Dec-22 00:33N 32°06' W 081°01'4 4.3
2015-Dec-21 23:33N 32°02' W 081°03'5 4.6
2015-Dec-21 22:33N 31°58' W 081°03'6 6.1
2015-Dec-21 21:33N 31°52' W 081°05'  
Track history (hours):
 
Tides and Currents Weather Stations Pressure Air Temp Water Temp Dewpoint Dewpoint Depression Visibility Wind Speed Wind Dir Waves Ship Positions

Independence

Owner: American Cruise Lines Inc., Delmar, DE. More information available from US FCC via Universal Licensing System and Coast Guard Vessel Documentation Center.

Last reported at 2015-Dec-31 08:30 UTC. Time now 2016-Feb-06 11:30 UTC.
Position N 31°45' W 081°10'.
Warning: this ship's position is 37 days out of date.

Length 65 m; draft 2.5 m.

Type: Passenger vessel. MMSI: 367438210.

Date/timePositionNaut miles runAvg speedWind from/ knotsBaromVisibWave heightAir tempDewpointWater temp
2015-Dec-31 08:30N 31°45' W 081°10'7 6.8
2015-Dec-31 07:25N 31°51' W 081°06'5 5.9
2015-Dec-31 06:33N 31°56' W 081°05'5 5.3
2015-Dec-31 05:33N 32°01' W 081°02'5 4.9
2015-Dec-31 04:33N 32°06' W 080°60'5 4.8
2015-Dec-31 03:31N 32°05' W 081°05'0 0.0
2015-Dec-31 02:31N 32°05' W 081°05'0 0.0
2015-Dec-31 01:31N 32°05' W 081°05'0 0.0
2015-Dec-31 00:31N 32°05' W 081°05'0 0.0
2015-Dec-30 23:31N 32°05' W 081°05'0 0.0
2015-Dec-30 22:31N 32°05' W 081°05'0 0.0
2015-Dec-30 21:31N 32°05' W 081°05'0 0.0
2015-Dec-30 20:31N 32°05' W 081°05'0 0.0
2015-Dec-30 19:31N 32°05' W 081°05'0 0.0
2015-Dec-30 18:31N 32°05' W 081°05'0 0.0
2015-Dec-30 17:31N 32°05' W 081°05'0 0.0
2015-Dec-30 16:31N 32°05' W 081°05'0 0.0
2015-Dec-30 15:31N 32°05' W 081°05'0 0.0
2015-Dec-30 14:31N 32°05' W 081°05'0 0.0
2015-Dec-30 13:31N 32°05' W 081°05'0 0.0
2015-Dec-30 12:31N 32°05' W 081°05'0 0.0
2015-Dec-30 11:31N 32°05' W 081°05'0 0.0
2015-Dec-30 10:31N 32°05' W 081°05'0 0.0
2015-Dec-30 09:31N 32°05' W 081°05'0 0.0
2015-Dec-30 08:31N 32°05' W 081°05'0 0.0
2015-Dec-30 07:31N 32°05' W 081°05'0 0.0
2015-Dec-30 06:31N 32°05' W 081°05'0 0.0
2015-Dec-30 05:31N 32°05' W 081°05'0 0.0
2015-Dec-30 04:31N 32°05' W 081°05'0 0.0
2015-Dec-30 03:31N 32°05' W 081°05'0 0.0
2015-Dec-30 02:31N 32°05' W 081°05'0 0.0
2015-Dec-30 01:31N 32°05' W 081°05'0 0.0
2015-Dec-30 00:31N 32°05' W 081°05'0 0.0
2015-Dec-29 23:31N 32°05' W 081°05'0 0.0
2015-Dec-29 22:31N 32°05' W 081°05'0 0.0
2015-Dec-29 21:31N 32°05' W 081°05'0 0.0
2015-Dec-29 20:34N 32°05' W 081°05'5 4.7
2015-Dec-29 19:34N 32°06' W 080°60'5 5.2
2015-Dec-29 18:34N 32°07' W 080°54'4 0.8
2015-Dec-29 13:10N 32°09' W 080°49'  
2015-Dec-23 20:21N 32°08' W 080°49'0 0.0
2015-Dec-23 19:33N 32°08' W 080°49'4 0.7
2015-Dec-23 14:33N 32°08' W 080°53'6 5.9
2015-Dec-23 13:33N 32°05' W 080°59'5 5.1
2015-Dec-23 12:33N 32°05' W 081°05'0 0.0
2015-Dec-23 11:33N 32°05' W 081°05'0 0.0
2015-Dec-23 10:33N 32°05' W 081°05'0 0.0
2015-Dec-23 09:33N 32°05' W 081°05'0 0.0
2015-Dec-23 08:33N 32°05' W 081°05'0 0.0
2015-Dec-23 07:33N 32°05' W 081°05'0 0.0
2015-Dec-23 06:33N 32°05' W 081°05'0 0.0
2015-Dec-23 05:33N 32°05' W 081°05'0 0.0
2015-Dec-23 04:33N 32°05' W 081°05'0 0.0
2015-Dec-23 03:33N 32°05' W 081°05'0 0.0
2015-Dec-23 02:33N 32°05' W 081°05'0 0.0
2015-Dec-23 01:33N 32°05' W 081°05'0 0.0
2015-Dec-23 00:33N 32°05' W 081°05'0 0.0
2015-Dec-22 23:33N 32°05' W 081°05'0 0.0
2015-Dec-22 22:33N 32°05' W 081°05'0 0.0
2015-Dec-22 21:33N 32°05' W 081°05'0 0.0
2015-Dec-22 20:33N 32°05' W 081°05'0 0.0
2015-Dec-22 19:33N 32°05' W 081°05'0 0.0
2015-Dec-22 18:33N 32°05' W 081°05'0 0.0
2015-Dec-22 17:33N 32°05' W 081°05'0 0.0
2015-Dec-22 16:33N 32°05' W 081°05'0 0.0
2015-Dec-22 15:33N 32°05' W 081°05'0 0.0
2015-Dec-22 14:33N 32°05' W 081°05'0 0.0
2015-Dec-22 13:33N 32°05' W 081°05'0 0.0
2015-Dec-22 12:33N 32°05' W 081°05'0 0.0
2015-Dec-22 11:33N 32°05' W 081°05'0 0.0
2015-Dec-22 10:33N 32°05' W 081°05'0 0.0
2015-Dec-22 09:33N 32°05' W 081°05'0 0.0
2015-Dec-22 08:33N 32°05' W 081°05'0 0.0
2015-Dec-22 07:33N 32°05' W 081°05'0 0.0
2015-Dec-22 06:33N 32°05' W 081°05'0 0.0
2015-Dec-22 05:33N 32°05' W 081°05'0 0.0
2015-Dec-22 04:33N 32°05' W 081°05'0 0.0
2015-Dec-22 03:33N 32°05' W 081°05'0 0.0
2015-Dec-22 02:33N 32°05' W 081°05'0 0.0
2015-Dec-22 01:33N 32°05' W 081°05'4 4.1
2015-Dec-22 00:33N 32°06' W 081°01'4 4.3
2015-Dec-21 23:33N 32°02' W 081°03'5 4.6
2015-Dec-21 22:33N 31°58' W 081°03'6 6.1
2015-Dec-21 21:33N 31°52' W 081°05'  

Dump ship's entire track history